Time;durP1;ratioP1;P1;durP2;ratioP2;P2;SDS_P1;SDS_P2;PMS_P1;PMS_P2;Temp;Humidity;BMP_temperature;BMP_pressure;BME280_temperature;BME280_humidity;BME280_pressure;Samples;Min_cycle;Max_cycle;Signal;HPM_P1;HPM_P2
2022/09/08 00:00:44;;;;;;;0.00;0.00;;;18.70;99.90;;;;;;4991897;28;20196;-70
2022/09/08 00:03:12;;;;;;;0.00;0.00;;;18.50;99.90;;;;;;4991858;28;20208;-71
2022/09/08 00:05:44;;;;;;;0.00;0.00;;;18.50;99.90;;;;;;4981734;28;20308;-71
2022/09/08 00:08:11;;;;;;;0.00;0.00;;;;;;;;;;5007151;28;20616;-71
2022/09/08 00:10:39;;;;;;;0.00;0.00;;;18.50;99.90;;;;;;4992200;28;20260;-71
2022/09/08 00:13:07;;;;;;;0.00;0.00;;;18.40;99.90;;;;;;4991319;28;20203;-71
2022/09/08 00:15:38;;;;;;;0.00;0.00;;;18.40;99.90;;;;;;4993774;28;20220;-70
2022/09/08 00:18:05;;;;;;;0.00;0.00;;;;;;;;;;4997543;28;20311;-71
2022/09/08 00:20:32;;;;;;;0.00;0.00;;;18.30;99.90;;;;;;4996087;28;20295;-70
2022/09/08 00:22:59;;;;;;;0.00;0.00;;;18.30;99.90;;;;;;4996032;28;20307;-71
2022/09/08 00:25:26;;;;;;;0.00;0.00;;;18.30;99.90;;;;;;5010990;28;20304;-71
2022/09/08 00:27:53;;;;;;;0.00;0.00;;;18.20;99.90;;;;;;5003573;28;20192;-71
2022/09/08 00:30:20;;;;;;;0.00;0.00;;;18.20;99.90;;;;;;4989614;28;20244;-71
2022/09/08 00:32:48;;;;;;;0.00;0.00;;;18.10;99.90;;;;;;5014302;28;20232;-70
2022/09/08 00:35:16;;;;;;;0.00;0.00;;;18.10;99.90;;;;;;4992343;28;20251;-70
2022/09/08 00:37:42;;;;;;;0.00;0.00;;;18.10;99.90;;;;;;4993810;28;20690;-71
2022/09/08 00:40:10;;;;;;;0.00;0.00;;;18.10;99.90;;;;;;5006808;28;20217;-71
2022/09/08 00:42:36;;;;;;;0.00;0.00;;;18.10;99.90;;;;;;4990461;28;20327;-71
2022/09/08 00:45:04;;;;;;;0.00;0.00;;;18.10;99.90;;;;;;5004337;28;20279;-71
2022/09/08 00:47:35;;;;;;;0.00;0.00;;;18.10;99.90;;;;;;5006285;28;20219;-71
2022/09/08 00:50:06;;;;;;;0.00;0.00;;;18.10;99.90;;;;;;4992300;28;20300;-71
2022/09/08 00:52:52;;;;;;;0.00;0.00;;;18.10;99.90;;;;;;5007413;28;20203;-71
2022/09/08 00:55:21;;;;;;;0.00;0.00;;;18.10;99.90;;;;;;5009798;28;20223;-71
2022/09/08 00:57:48;;;;;;;0.00;0.00;;;18.10;99.90;;;;;;4993730;28;20307;-71
2022/09/08 01:00:17;;;;;;;0.00;0.00;;;18.00;99.90;;;;;;5000563;28;20768;-71
2022/09/08 01:02:45;;;;;;;0.00;0.00;;;18.10;99.90;;;;;;5012684;28;20200;-71
2022/09/08 01:05:18;;;;;;;0.00;0.00;;;18.00;99.90;;;;;;5009487;28;20271;-71
2022/09/08 01:13:37;;;;;;;0.00;0.00;;;18.00;99.90;;;;;;4986689;28;20235;-71
2022/09/08 01:16:05;;;;;;;0.00;0.00;;;17.90;99.90;;;;;;4991419;28;20221;-71
2022/09/08 01:18:33;;;;;;;0.00;0.00;;;17.90;99.90;;;;;;5009902;28;20197;-69
2022/09/08 01:21:08;;;;;;;0.00;0.00;;;17.80;99.90;;;;;;4995995;28;20284;-71
2022/09/08 01:23:46;;;;;;;0.00;0.00;;;17.70;99.90;;;;;;4988401;28;20226;-71
2022/09/08 01:26:29;;;;;;;0.00;0.00;;;;;;;;;;4993158;28;20694;-71
2022/09/08 01:29:00;;;;;;;0.00;0.00;;;17.60;99.90;;;;;;4978825;28;20224;-71
2022/09/08 01:31:30;;;;;;;0.00;0.00;;;17.60;99.90;;;;;;5003025;28;20566;-70
2022/09/08 01:33:59;;;;;;;0.00;0.00;;;17.60;99.90;;;;;;4990659;28;20224;-71
2022/09/08 01:36:26;;;;;;;0.00;0.00;;;17.60;99.90;;;;;;4994045;28;20224;-71
2022/09/08 01:38:54;;;;;;;0.00;0.00;;;17.60;99.90;;;;;;4993970;28;20236;-70
2022/09/08 01:41:21;;;;;;;0.00;0.00;;;17.50;99.90;;;;;;5005722;28;20199;-71
2022/09/08 01:43:48;;;;;;;0.00;0.00;;;;;;;;;;5003623;28;20207;-70
2022/09/08 01:46:16;;;;;;;0.00;0.00;;;17.40;99.90;;;;;;4999441;28;20313;-70
2022/09/08 01:48:43;;;;;;;0.00;0.00;;;17.40;99.90;;;;;;5006312;28;20197;-71
2022/09/08 01:51:10;;;;;;;0.00;0.00;;;17.40;99.90;;;;;;4994766;28;20196;-70
2022/09/08 01:53:38;;;;;;;0.00;0.00;;;17.40;99.90;;;;;;5006443;28;20702;-70
2022/09/08 01:56:05;;;;;;;0.00;0.00;;;17.40;99.90;;;;;;5010856;28;20223;-70
2022/09/08 01:58:32;;;;;;;0.00;0.00;;;17.30;99.90;;;;;;4990428;28;20256;-70
2022/09/08 02:00:59;;;;;;;0.00;0.00;;;17.40;99.90;;;;;;4997885;28;20196;-71
2022/09/08 02:03:27;;;;;;;0.00;0.00;;;17.40;99.90;;;;;;4994628;28;20288;-71
2022/09/08 02:05:59;;;;;;;0.00;0.00;;;17.40;99.90;;;;;;4997200;28;20230;-71
2022/09/08 02:08:26;;;;;;;0.00;0.00;;;17.50;99.90;;;;;;4987563;28;20201;-71
2022/09/08 02:10:54;;;;;;;0.00;0.00;;;17.50;99.90;;;;;;4990565;28;20203;-70
2022/09/08 02:13:22;;;;;;;0.00;0.00;;;17.50;99.90;;;;;;5005331;28;20307;-71
2022/09/08 02:15:49;;;;;;;0.00;0.00;;;17.40;99.90;;;;;;4991186;28;20220;-71
2022/09/08 02:18:16;;;;;;;0.00;0.00;;;17.40;99.90;;;;;;4993893;28;20319;-70
2022/09/08 02:20:45;;;;;;;0.00;0.00;;;17.30;99.90;;;;;;4991413;28;20288;-71
2022/09/08 02:23:12;;;;;;;0.00;0.00;;;17.30;99.90;;;;;;4990844;28;20288;-71
2022/09/08 02:25:38;;;;;;;0.00;0.00;;;17.30;99.90;;;;;;4943555;28;1418763;-70
2022/09/08 02:28:05;;;;;;;0.00;0.00;;;17.30;99.90;;;;;;5007166;28;20616;-71
2022/09/08 02:30:32;;;;;;;0.00;0.00;;;17.40;99.90;;;;;;4993806;28;20207;-71
2022/09/08 02:32:59;;;;;;;0.00;0.00;;;17.40;99.90;;;;;;4996308;28;20301;-71
2022/09/08 02:35:26;;;;;;;0.00;0.00;;;17.40;99.90;;;;;;5005526;28;20232;-71
2022/09/08 02:37:54;;;;;;;0.00;0.00;;;17.40;99.90;;;;;;4988981;28;20225;-71
2022/09/08 02:40:21;;;;;;;0.00;0.00;;;17.40;99.90;;;;;;5002912;28;20193;-71
2022/09/08 02:42:48;;;;;;;0.00;0.00;;;17.40;99.90;;;;;;5006728;28;20196;-70
2022/09/08 02:45:15;;;;;;;0.00;0.00;;;17.40;99.90;;;;;;4991595;28;20208;-71
2022/09/08 02:47:42;;;;;;;0.00;0.00;;;17.40;99.90;;;;;;4994167;28;20201;-69
2022/09/08 02:50:09;;;;;;;0.00;0.00;;;17.40;99.90;;;;;;4994291;28;20255;-71
2022/09/08 02:52:37;;;;;;;0.00;0.00;;;17.40;99.90;;;;;;4990427;28;20208;-69
2022/09/08 02:55:05;;;;;;;0.00;0.00;;;17.40;99.90;;;;;;4997092;28;20222;-71
2022/09/08 02:57:33;;;;;;;0.00;0.00;;;17.40;99.90;;;;;;5006323;28;20262;-71
2022/09/08 02:59:59;;;;;;;0.00;0.00;;;17.30;99.90;;;;;;4990969;28;20203;-71
2022/09/08 03:02:26;;;;;;;0.00;0.00;;;17.40;99.90;;;;;;5008055;28;20197;-71
2022/09/08 03:04:53;;;;;;;0.00;0.00;;;17.40;99.90;;;;;;4993772;28;20220;-70
2022/09/08 03:07:20;;;;;;;0.00;0.00;;;17.40;99.90;;;;;;4985617;28;20197;-71
2022/09/08 03:09:47;;;;;;;0.00;0.00;;;17.40;99.90;;;;;;4991501;28;20232;-71
2022/09/08 03:12:15;;;;;;;0.00;0.00;;;17.40;99.90;;;;;;4988266;28;20235;-71
2022/09/08 03:14:43;;;;;;;0.00;0.00;;;17.40;99.90;;;;;;4988058;28;20765;-71
2022/09/08 03:17:10;;;;;;;0.00;0.00;;;17.40;99.90;;;;;;4989627;28;20220;-71
2022/09/08 03:19:37;;;;;;;0.00;0.00;;;17.40;99.90;;;;;;4985796;28;20713;-71
2022/09/08 03:22:04;;;;;;;0.00;0.00;;;;;;;;;;4992272;28;20209;-71
2022/09/08 03:24:32;;;;;;;0.00;0.00;;;;;;;;;;4991129;28;20221;-71
2022/09/08 03:27:00;;;;;;;0.00;0.00;;;;;;;;;;4992320;28;20231;-71
2022/09/08 03:29:30;;;;;;;0.00;0.00;;;;;;;;;;4987873;28;20205;-71
2022/09/08 03:31:58;;;;;;;0.00;0.00;;;;;;;;;;4993744;28;20232;-71
2022/09/08 03:34:25;;;;;;;0.00;0.00;;;;;;;;;;4996565;28;20831;-71
2022/09/08 03:36:52;;;;;;;0.00;0.00;;;;;;;;;;5001254;28;20215;-70
2022/09/08 03:39:19;;;;;;;0.00;0.00;;;;;;;;;;4995143;28;20207;-71
2022/09/08 03:41:46;;;;;;;0.00;0.00;;;;;;;;;;4990169;28;20196;-70
2022/09/08 03:44:13;;;;;;;0.00;0.00;;;;;;;;;;4991983;28;20236;-71
2022/09/08 03:46:42;;;;;;;0.00;0.00;;;;;;;;;;4995109;28;20268;-71
2022/09/08 03:49:09;;;;;;;0.00;0.00;;;;;;;;;;4991761;28;20199;-71
2022/09/08 03:51:37;;;;;;;0.00;0.00;;;;;;;;;;5004355;28;20594;-71
2022/09/08 03:56:50;;;;;;;0.00;0.00;;;;;;;;;;4993175;28;20566;-71
2022/09/08 03:59:17;;;;;;;0.00;0.00;;;;;;;;;;4994964;28;20599;-70
2022/09/08 04:01:46;;;;;;;0.00;0.00;;;;;;;;;;4994478;28;20209;-70
2022/09/08 04:04:14;;;;;;;0.00;0.00;;;;;;;;;;5012853;28;20201;-71
2022/09/08 04:06:41;;;;;;;0.00;0.00;;;17.30;99.90;;;;;;5000045;28;20197;-71
2022/09/08 04:09:08;;;;;;;0.00;0.00;;;17.10;99.90;;;;;;5011048;28;20188;-71
2022/09/08 04:11:35;;;;;;;0.00;0.00;;;17.10;99.90;;;;;;4993439;28;20211;-71
2022/09/08 04:14:02;;;;;;;0.00;0.00;;;17.00;99.90;;;;;;4994199;28;20205;-71
2022/09/08 04:16:29;;;;;;;0.00;0.00;;;17.00;99.90;;;;;;5010234;28;20216;-71
2022/09/08 04:18:58;;;;;;;0.00;0.00;;;17.00;99.90;;;;;;5005926;28;20704;-70
2022/09/08 04:21:25;;;;;;;0.00;0.00;;;16.90;99.90;;;;;;4995703;28;20208;-71
2022/09/08 04:23:52;;;;;;;0.00;0.00;;;16.90;99.90;;;;;;5010719;28;20207;-71
2022/09/08 04:26:20;;;;;;;0.00;0.00;;;16.90;99.90;;;;;;4987964;28;20315;-71
2022/09/08 04:28:47;;;;;;;0.00;0.00;;;;;;;;;;5010818;28;20263;-71
2022/09/08 04:31:15;;;;;;;0.00;0.00;;;;;;;;;;4991987;28;20231;-72
2022/09/08 04:33:43;;;;;;;0.00;0.00;;;;;;;;;;4994196;28;20291;-72
2022/09/08 04:36:12;;;;;;;0.00;0.00;;;;;;;;;;4988135;28;20224;-72
2022/09/08 04:38:40;;;;;;;0.00;0.00;;;;;;;;;;4992597;28;20224;-72
2022/09/08 04:41:08;;;;;;;0.00;0.00;;;;;;;;;;4995645;28;20295;-71
2022/09/08 04:43:35;;;;;;;0.00;0.00;;;;;;;;;;4999635;28;20209;-71
2022/09/08 04:46:04;;;;;;;0.00;0.00;;;;;;;;;;4997154;28;20228;-71
2022/09/08 04:48:31;;;;;;;0.00;0.00;;;;;;;;;;4990880;28;20207;-72
2022/09/08 04:50:58;;;;;;;0.00;0.00;;;;;;;;;;5014475;28;20654;-71
2022/09/08 04:53:27;;;;;;;0.00;0.00;;;;;;;;;;4993080;28;20198;-71
2022/09/08 04:55:55;;;;;;;0.00;0.00;;;;;;;;;;4993340;28;20251;-71
2022/09/08 04:58:22;;;;;;;0.00;0.00;;;;;;;;;;4991136;28;20228;-71
2022/09/08 05:00:50;;;;;;;0.00;0.00;;;;;;;;;;4996448;28;20204;-71
2022/09/08 05:03:18;;;;;;;0.00;0.00;;;;;;;;;;4993662;28;20208;-71
2022/09/08 05:05:45;;;;;;;0.00;0.00;;;;;;;;;;4994633;28;20287;-71
2022/09/08 05:08:12;;;;;;;0.00;0.00;;;;;;;;;;5006014;28;20207;-71
2022/09/08 05:10:41;;;;;;;0.00;0.00;;;;;;;;;;5011454;28;20196;-71
2022/09/08 05:13:09;;;;;;;0.00;0.00;;;;;;;;;;5001555;28;20197;-71
2022/09/08 05:15:37;;;;;;;0.00;0.00;;;;;;;;;;5000849;28;20297;-71
2022/09/08 05:18:04;;;;;;;0.00;0.00;;;;;;;;;;4992564;28;20256;-74
2022/09/08 05:20:31;;;;;;;0.00;0.00;;;;;;;;;;4981964;28;20288;-71
2022/09/08 05:22:59;;;;;;;0.00;0.00;;;;;;;;;;5005441;28;20200;-71
2022/09/08 05:25:28;;;;;;;0.00;0.00;;;;;;;;;;4998133;28;20232;-71
2022/09/08 05:27:57;;;;;;;0.00;0.00;;;;;;;;;;4991146;28;20283;-71
2022/09/08 05:30:24;;;;;;;0.00;0.00;;;;;;;;;;4987294;28;20206;-71
2022/09/08 05:32:52;;;;;;;0.00;0.00;;;;;;;;;;4993927;28;20216;-72
2022/09/08 05:35:19;;;;;;;0.00;0.00;;;;;;;;;;5006383;28;20266;-70
2022/09/08 05:37:46;;;;;;;0.00;0.00;;;;;;;;;;4990910;28;20225;-71
2022/09/08 05:40:14;;;;;;;0.00;0.00;;;;;;;;;;4993333;28;20224;-71
2022/09/08 05:42:42;;;;;;;0.00;0.00;;;;;;;;;;5002993;28;20199;-70
2022/09/08 05:45:12;;;;;;;0.00;0.00;;;;;;;;;;4987645;28;20275;-69
2022/09/08 05:47:39;;;;;;;0.00;0.00;;;;;;;;;;4989153;28;20229;-71
2022/09/08 05:50:07;;;;;;;0.00;0.00;;;;;;;;;;4993598;28;20247;-71
2022/09/08 05:52:34;;;;;;;0.00;0.00;;;;;;;;;;4987237;28;20209;-70
2022/09/08 05:55:02;;;;;;;0.00;0.00;;;;;;;;;;5017067;28;20224;-71
2022/09/08 05:57:29;;;;;;;0.00;0.00;;;;;;;;;;4991935;28;20193;-72
2022/09/08 05:59:56;;;;;;;0.00;0.00;;;;;;;;;;4993824;28;20224;-71
2022/09/08 06:02:25;;;;;;;0.00;0.00;;;;;;;;;;4997521;28;20259;-72
2022/09/08 06:04:52;;;;;;;0.00;0.00;;;;;;;;;;4990461;28;20224;-69
2022/09/08 06:07:19;;;;;;;0.00;0.00;;;;;;;;;;4989263;28;20205;-72
2022/09/08 06:09:47;;;;;;;0.00;0.00;;;;;;;;;;4993707;28;20200;-71
2022/09/08 06:12:15;;;;;;;0.00;0.00;;;;;;;;;;4999152;28;20207;-71
2022/09/08 06:14:42;;;;;;;0.00;0.00;;;;;;;;;;4992887;28;20213;-71
2022/09/08 06:17:10;;;;;;;0.00;0.00;;;;;;;;;;5008624;28;20193;-70
2022/09/08 06:19:39;;;;;;;0.00;0.00;;;;;;;;;;5003401;28;20216;-70
2022/09/08 06:22:06;;;;;;;0.00;0.00;;;;;;;;;;4992189;28;20207;-70
2022/09/08 06:24:33;;;;;;;0.00;0.00;;;;;;;;;;5006530;28;20234;-70
2022/09/08 06:27:06;;;;;;;0.00;0.00;;;;;;;;;;5014729;28;20200;-71
2022/09/08 06:29:38;;;;;;;0.00;0.00;;;;;;;;;;4983403;28;20193;-69
2022/09/08 06:32:10;;;;;;;0.00;0.00;;;;;;;;;;4993087;28;20207;-68
2022/09/08 06:34:41;;;;;;;0.00;0.00;;;;;;;;;;4995176;28;20225;-69
2022/09/08 06:37:13;;;;;;;0.00;0.00;;;;;;;;;;4991231;28;20273;-70
2022/09/08 06:39:43;;;;;;;0.00;0.00;;;;;;;;;;4992799;28;20270;-70
2022/09/08 06:42:13;;;;;;;0.00;0.00;;;;;;;;;;4988727;28;20209;-72
2022/09/08 06:44:43;;;;;;;0.00;0.00;;;;;;;;;;4985713;28;20288;-72
2022/09/08 06:47:12;;;;;;;0.00;0.00;;;;;;;;;;4989414;28;20224;-71
2022/09/08 06:49:41;;;;;;;0.00;0.00;;;;;;;;;;4989790;28;20583;-70
2022/09/08 06:52:11;;;;;;;0.00;0.00;;;;;;;;;;5004554;28;20196;-72
2022/09/08 06:54:42;;;;;;;0.00;0.00;;;;;;;;;;4987179;28;20320;-70
2022/09/08 06:57:16;;;;;;;0.00;0.00;;;;;;;;;;5009590;28;20192;-71
2022/09/08 06:59:49;;;;;;;0.00;0.00;;;;;;;;;;5012138;28;20244;-71
2022/09/08 07:02:30;;;;;;;0.00;0.00;;;;;;;;;;4993608;28;20223;-71
2022/09/08 07:05:01;;;;;;;0.00;0.00;;;;;;;;;;4986449;28;20230;-71
2022/09/08 07:07:31;;;;;;;0.00;0.00;;;;;;;;;;4991050;28;20221;-71
2022/09/08 07:10:03;;;;;;;0.00;0.00;;;;;;;;;;4985542;28;20197;-71
2022/09/08 07:12:39;;;;;;;0.00;0.00;;;;;;;;;;4989192;28;20196;-71
2022/09/08 07:15:21;;;;;;;0.00;0.00;;;;;;;;;;4983856;28;20219;-70
2022/09/08 07:17:51;;;;;;;0.00;0.00;;;;;;;;;;4995546;28;20213;-74
2022/09/08 07:20:22;;;;;;;0.00;0.00;;;;;;;;;;5007615;28;20309;-73
2022/09/08 07:22:52;;;;;;;0.00;0.00;;;;;;;;;;5005065;28;20201;-73
2022/09/08 07:25:22;;;;;;;0.00;0.00;;;;;;;;;;4991225;28;20799;-73
2022/09/08 07:27:53;;;;;;;0.00;0.00;;;;;;;;;;5004391;28;20205;-73
2022/09/08 07:30:21;;;;;;;0.00;0.00;;;;;;;;;;5008160;28;20254;-72
2022/09/08 07:32:50;;;;;;;0.00;0.00;;;;;;;;;;4993072;28;20212;-73
2022/09/08 07:35:22;;;;;;;0.00;0.00;;;;;;;;;;4988561;28;20231;-72
2022/09/08 07:37:52;;;;;;;0.00;0.00;;;;;;;;;;4979999;28;20204;-72
2022/09/08 07:40:20;;;;;;;0.00;0.00;;;;;;;;;;5003062;28;20228;-73
2022/09/08 07:42:49;;;;;;;0.00;0.00;;;;;;;;;;4992922;28;20228;-72
2022/09/08 07:45:17;;;;;;;0.00;0.00;;;;;;;;;;4988600;28;20232;-72
2022/09/08 07:47:50;;;;;;;0.00;0.00;;;;;;;;;;4988943;28;20254;-73
2022/09/08 07:50:22;;;;;;;0.00;0.00;;;;;;;;;;4989126;28;20200;-72
2022/09/08 07:52:55;;;;;;;0.00;0.00;;;;;;;;;;4996677;28;20221;-72
2022/09/08 07:55:27;;;;;;;0.00;0.00;;;;;;;;;;5004283;28;20275;-72
2022/09/08 07:57:58;;;;;;;0.00;0.00;;;;;;;;;;4983434;28;20211;-72
2022/09/08 08:00:34;;;;;;;0.00;0.00;;;;;;;;;;4983458;28;20629;-72
2022/09/08 08:03:08;;;;;;;0.00;0.00;;;;;;;;;;4988160;28;20262;-73
2022/09/08 08:05:40;;;;;;;0.00;0.00;;;;;;;;;;4991172;28;20288;-72
2022/09/08 08:08:14;;;;;;;0.00;0.00;;;;;;;;;;4980287;28;20214;-73
2022/09/08 08:10:46;;;;;;;0.00;0.00;;;;;;;;;;5006082;28;20215;-72
2022/09/08 08:13:17;;;;;;;0.00;0.00;;;;;;;;;;4985685;28;20205;-72
2022/09/08 08:15:46;;;;;;;0.00;0.00;;;;;;;;;;4990399;28;20292;-72
2022/09/08 08:18:19;;;;;;;0.00;0.00;;;;;;;;;;4987097;28;20189;-73
2022/09/08 08:20:51;;;;;;;0.00;0.00;;;;;;;;;;4992684;28;20314;-72
2022/09/08 08:23:29;;;;;;;0.00;0.00;;;;;;;;;;4999895;28;20259;-72
2022/09/08 08:26:00;;;;;;;0.00;0.00;;;;;;;;;;5002241;28;20302;-73
2022/09/08 08:28:29;;;;;;;0.00;0.00;;;;;;;;;;5007935;28;20209;-73
2022/09/08 08:31:09;;;;;;;0.00;0.00;;;;;;;;;;4999005;28;20207;-75
2022/09/08 08:33:37;;;;;;;0.00;0.00;;;;;;;;;;4997257;28;20216;-73
2022/09/08 08:36:06;;;;;;;0.00;0.00;;;;;;;;;;4985840;28;20224;-74
2022/09/08 08:38:37;;;;;;;0.00;0.00;;;;;;;;;;4992237;28;20299;-74
2022/09/08 08:41:08;;;;;;;0.00;0.00;;;;;;;;;;5015528;28;20202;-73
2022/09/08 08:43:41;;;;;;;0.00;0.00;;;;;;;;;;5004846;28;20675;-73
2022/09/08 08:46:20;;;;;;;0.00;0.00;;;;;;;;;;4989919;28;20232;-75
2022/09/08 08:48:53;;;;;;;0.00;0.00;;;;;;;;;;4990143;28;20463;-75
2022/09/08 08:51:35;;;;;;;0.00;0.00;;;;;;;;;;4991353;28;20205;-75
2022/09/08 08:54:19;;;;;;;0.00;0.00;;;;;;;;;;4990702;28;20211;-75
2022/09/08 08:56:49;;;;;;;0.00;0.00;;;;;;;;;;4991766;28;20238;-75
2022/09/08 08:59:23;;;;;;;0.00;0.00;;;;;;;;;;4993182;28;20251;-74
2022/09/08 09:02:01;;;;;;;0.00;0.00;;;;;;;;;;5003714;28;20208;-74
2022/09/08 09:04:36;;;;;;;0.00;0.00;;;;;;;;;;5006538;28;20196;-74
2022/09/08 09:07:12;;;;;;;0.00;0.00;;;;;;;;;;5006944;28;20204;-75
2022/09/08 09:09:47;;;;;;;0.00;0.00;;;;;;;;;;4985403;28;20201;-75
2022/09/08 09:12:22;;;;;;;0.00;0.00;;;;;;;;;;4992063;28;20200;-76
2022/09/08 09:15:04;;;;;;;0.00;0.00;;;;;;;;;;4985790;28;20225;-75
2022/09/08 09:17:38;;;;;;;0.00;0.00;;;;;;;;;;4989106;28;20617;-76
2022/09/08 09:20:18;;;;;;;0.00;0.00;;;;;;;;;;4988491;28;20232;-76
2022/09/08 09:22:52;;;;;;;0.00;0.00;;;;;;;;;;4988574;28;20201;-75
2022/09/08 09:25:24;;;;;;;0.00;0.00;;;;;;;;;;4985771;28;20242;-76
2022/09/08 09:27:56;;;;;;;0.00;0.00;;;;;;;;;;4994108;28;20220;-75
2022/09/08 09:30:25;;;;;;;0.00;0.00;;;;;;;;;;4983716;28;20200;-75
2022/09/08 09:33:16;;;;;;;0.00;0.00;;;;;;;;;;4992000;28;20247;-74
2022/09/08 09:35:58;;;;;;;0.00;0.00;;;;;;;;;;5009627;28;20216;-74
2022/09/08 09:38:36;;;;;;;0.00;0.00;;;;;;;;;;5001957;28;20251;-75
2022/09/08 09:41:18;;;;;;;0.00;0.00;;;;;;;;;;4988952;28;20302;-75
2022/09/08 09:43:55;;;;;;;0.00;0.00;;;;;;;;;;5001337;28;20197;-75
2022/09/08 09:46:34;;;;;;;0.00;0.00;;;;;;;;;;4990588;28;20232;-75
2022/09/08 09:49:22;;;;;;;0.00;0.00;;;;;;;;;;4992201;28;20200;-75
2022/09/08 09:51:56;;;;;;;0.00;0.00;;;;;;;;;;4964501;28;20303;-75
2022/09/08 09:54:29;;;;;;;0.00;0.00;;;;;;;;;;4989888;28;20200;-75
2022/09/08 09:57:10;;;;;;;0.00;0.00;;;;;;;;;;4986760;28;20209;-75
2022/09/08 09:59:50;;;;;;;0.00;0.00;;;;;;;;;;4995210;28;20216;-75
2022/09/08 10:02:35;;;;;;;0.00;0.00;;;;;;;;;;4989167;28;20262;-75
2022/09/08 10:05:13;;;;;;;0.00;0.00;;;;;;;;;;5010681;28;20215;-75
2022/09/08 10:07:57;;;;;;;0.00;0.00;;;;;;;;;;5005937;28;20208;-75
2022/09/08 10:10:28;;;;;;;0.00;0.00;;;;;;;;;;5003315;28;20196;-75
2022/09/08 10:13:11;;;;;;;0.00;0.00;;;;;;;;;;5005326;28;20197;-75
2022/09/08 10:16:06;;;;;;;0.00;0.00;;;;;;;;;;5005144;28;20247;-75
2022/09/08 10:18:48;;;;;;;0.00;0.00;;;;;;;;;;4951372;28;20213;-75
2022/09/08 10:21:29;;;;;;;0.00;0.00;;;;;;;;;;4990396;28;20224;-75
2022/09/08 10:24:11;;;;;;;0.00;0.00;;;;;;;;;;5006011;28;20201;-75
2022/09/08 10:26:59;;;;;;;0.00;0.00;;;;;;;;;;4991254;28;20212;-74
2022/09/08 10:29:38;;;;;;;0.00;0.00;;;;;;;;;;4999618;28;20209;-75
2022/09/08 10:32:24;;;;;;;0.00;0.00;;;;;;;;;;4994687;28;20277;-75
2022/09/08 10:35:11;;;;;;;0.00;0.00;;;;;;;;;;4990587;28;20221;-74
2022/09/08 10:37:53;;;;;;;0.00;0.00;;;;;;;;;;4987677;28;20201;-75
2022/09/08 10:40:26;;;;;;;0.00;0.00;;;;;;;;;;4999132;28;20227;-75
2022/09/08 10:42:54;;;;;;;0.00;0.00;;;;;;;;;;4986020;28;20217;-74
2022/09/08 10:45:30;;;;;;;0.00;0.00;;;;;;;;;;4986463;28;20256;-75
2022/09/08 10:48:08;;;;;;;0.00;0.00;;;;;;;;;;4984218;28;20325;-75
2022/09/08 10:50:36;;;;;;;0.00;0.00;;;;;;;;;;4989762;28;20219;-75
2022/09/08 10:53:19;;;;;;;0.00;0.00;;;;;;;;;;4993907;28;20236;-75
2022/09/08 10:56:06;;;;;;;0.00;0.00;;;;;;;;;;4993425;28;20227;-75
2022/09/08 10:58:54;;;;;;;0.00;0.00;;;;;;;;;;4997088;28;20199;-75
2022/09/08 11:01:39;;;;;;;0.00;0.00;;;;;;;;;;5007338;28;20217;-76
2022/09/08 11:04:22;;;;;;;0.00;0.00;;;;;;;;;;4970185;28;20211;-75
2022/09/08 11:07:01;;;;;;;0.00;0.00;;;;;;;;;;4991498;28;20215;-75
2022/09/08 11:09:39;;;;;;;0.00;0.00;;;;;;;;;;4995344;28;20204;-76
2022/09/08 11:12:21;;;;;;;0.00;0.00;;;;;;;;;;5006554;28;20266;-76
2022/09/08 11:15:01;;;;;;;0.00;0.00;;;;;;;;;;4994249;28;20232;-76
2022/09/08 11:17:36;;;;;;;0.00;0.00;;;;;;;;;;4992198;28;20215;-76
2022/09/08 11:20:09;;;;;;;0.00;0.00;;;;;;;;;;4996201;28;20262;-75
2022/09/08 11:22:47;;;;;;;0.00;0.00;;;;;;;;;;4997126;28;20277;-76
2022/09/08 11:25:31;;;;;;;0.00;0.00;;;;;;;;;;4995525;28;20224;-76
2022/09/08 11:28:05;;;;;;;0.00;0.00;;;;;;;;;;4993167;28;20258;-76
2022/09/08 11:30:36;;;;;;;0.00;0.00;;;;;;;;;;4996590;28;20259;-77
2022/09/08 11:33:20;;;;;;;0.00;0.00;;;;;;;;;;4999891;28;20217;-76
2022/09/08 11:35:55;;;;;;;0.00;0.00;;;;;;;;;;4984725;28;20323;-77
2022/09/08 11:38:37;;;;;;;0.00;0.00;;;;;;;;;;4996503;28;20267;-76
2022/09/08 11:41:23;;;;;;;0.00;0.00;;;;;;;;;;4993463;28;20227;-76
2022/09/08 11:44:01;;;;;;;0.00;0.00;;;;;;;;;;5011611;28;20291;-77
2022/09/08 11:46:37;;;;;;;0.00;0.00;;;;;;;;;;4996628;28;20244;-76
2022/09/08 11:49:26;;;;;;;0.00;0.00;;;;;;;;;;5011524;28;20254;-75
2022/09/08 11:52:03;;;;;;;0.00;0.00;;;;;;;;;;4994821;28;20205;-76
2022/09/08 11:54:41;;;;;;;0.00;0.00;;;;;;;;;;5004027;28;20206;-76
2022/09/08 11:57:21;;;;;;;0.00;0.00;;;;;;;;;;5007565;28;20192;-76
2022/09/08 12:00:01;;;;;;;0.00;0.00;;;;;;;;;;4995740;28;20212;-76
2022/09/08 12:02:56;;;;;;;0.00;0.00;;;;;;;;;;5011494;28;20227;-76
2022/09/08 12:05:29;;;;;;;0.00;0.00;;;;;;;;;;4991624;28;20626;-76
2022/09/08 12:08:07;;;;;;;0.00;0.00;;;;;;;;;;4997604;28;20291;-76
2022/09/08 12:10:38;;;;;;;0.00;0.00;;;;;;;;;;5015935;28;20287;-76
2022/09/08 12:13:14;;;;;;;0.00;0.00;;;;;;;;;;5003277;28;20221;-76
2022/09/08 12:15:58;;;;;;;0.00;0.00;;;;;;;;;;5001691;28;20246;-75
2022/09/08 12:18:42;;;;;;;0.00;0.00;;;;;;;;;;4994670;28;20208;-76
2022/09/08 12:21:21;;;;;;;0.00;0.00;;;;;;;;;;5000718;28;20471;-76
2022/09/08 12:23:51;;;;;;;0.00;0.00;;;;;;;;;;5016773;28;20216;-75
2022/09/08 12:26:25;;;;;;;0.00;0.00;;;;;;;;;;4997651;28;20304;-76
2022/09/08 12:29:03;;;;;;;0.00;0.00;;;;;;;;;;5006886;28;20204;-76
2022/09/08 12:31:37;;;;;;;0.00;0.00;;;;;;;;;;4997661;28;20291;-76
2022/09/08 12:34:15;;;;;;;0.00;0.00;;;;;;;;;;4991163;28;20204;-76
2022/09/08 12:36:44;;;;;;;0.00;0.00;;;;;;;;;;4991374;28;20213;-75
2022/09/08 12:39:24;;;;;;;0.00;0.00;;;;;;;;;;5007553;28;20203;-76
2022/09/08 12:42:02;;;;;;;0.00;0.00;;;;;;;;;;4992274;28;20224;-75
2022/09/08 12:44:39;;;;;;;0.00;0.00;;;;;;;;;;4985221;28;20208;-76
2022/09/08 12:47:15;;;;;;;0.00;0.00;;;;;;;;;;5003980;28;20224;-76
2022/09/08 12:49:52;;;;;;;0.00;0.00;;;;;;;;;;5008897;28;20267;-76
2022/09/08 12:52:28;;;;;;;0.00;0.00;;;;;;;;;;4984988;28;20208;-76
2022/09/08 12:55:00;;;;;;;0.00;0.00;;;;;;;;;;4993247;28;20224;-76
2022/09/08 12:57:46;;;;;;;0.00;0.00;;;;;;;;;;5013241;28;20209;-76
2022/09/08 13:00:14;;;;;;;0.00;0.00;;;;;;;;;;4998582;28;20315;-76
2022/09/08 13:02:58;;;;;;;0.00;0.00;;;;;;;;;;4992531;28;20258;-76
2022/09/08 13:05:34;;;;;;;0.00;0.00;;;;;;;;;;4985524;28;20228;-75
2022/09/08 13:08:08;;;;;;;0.00;0.00;;;;;;;;;;4989127;28;20201;-76
2022/09/08 13:10:38;;;;;;;0.00;0.00;;;;;;;;;;4992516;28;20707;-76
2022/09/08 13:13:19;;;;;;;0.00;0.00;;;;;;;;;;4997496;28;20202;-76
2022/09/08 13:15:51;;;;;;;0.00;0.00;;;;;;;;;;4994575;28;20225;-77
2022/09/08 13:18:27;;;;;;;0.00;0.00;;;;;;;;;;4991297;28;20215;-76
2022/09/08 13:20:57;;;;;;;0.00;0.00;;;;;;;;;;5002371;28;20224;-76
2022/09/08 13:23:36;;;;;;;0.00;0.00;;;;;;;;;;4985244;28;20204;-76
2022/09/08 13:26:14;;;;;;;0.00;0.00;;;;;;;;;;4985040;28;20279;-76
2022/09/08 13:28:50;;;;;;;0.00;0.00;;;;;;;;;;5004494;28;20227;-76
2022/09/08 13:31:22;;;;;;;0.00;0.00;;;;;;;;;;4982498;28;20200;-76
2022/09/08 13:34:06;;;;;;;0.00;0.00;;;;;;;;;;4992209;28;20237;-76
2022/09/08 13:36:41;;;;;;;0.00;0.00;;;;;;;;;;4994406;28;20220;-76
2022/09/08 13:39:18;;;;;;;0.00;0.00;;;;;;;;;;4987537;28;20192;-76
2022/09/08 13:42:00;;;;;;;0.00;0.00;;;;;;;;;;4999397;28;20228;-75
2022/09/08 13:44:36;;;;;;;0.00;0.00;;;;;;;;;;4985616;28;20201;-76
2022/09/08 13:47:15;;;;;;;0.00;0.00;;;;;;;;;;5003255;28;20259;-76
2022/09/08 13:49:56;;;;;;;0.00;0.00;;;;;;;;;;4993440;28;20367;-76
2022/09/08 13:52:41;;;;;;;0.00;0.00;;;;;;;;;;4986754;28;20231;-76
2022/09/08 13:55:23;;;;;;;0.00;0.00;;;;;;;;;;4981475;28;20229;-76
2022/09/08 13:58:18;;;;;;;0.00;0.00;;;;;;;;;;4986588;28;20209;-76
2022/09/08 14:01:04;;;;;;;0.00;0.00;;;;;;;;;;4974022;28;20311;-76
2022/09/08 14:03:34;;;;;;;0.00;0.00;;;;;;;;;;4983143;28;20208;-76
2022/09/08 14:06:08;;;;;;;0.00;0.00;;;;;;;;;;4999199;28;20227;-76
2022/09/08 14:08:38;;;;;;;0.00;0.00;;;;;;;;;;4997054;28;20591;-76
2022/09/08 14:11:16;;;;;;;0.00;0.00;;;;;;;;;;5010254;28;20195;-76
2022/09/08 14:13:44;;;;;;;0.00;0.00;;;;;;;;;;4989783;28;20192;-76
2022/09/08 14:16:16;;;;;;;0.00;0.00;;;;;;;;;;4989245;28;20252;-76
2022/09/08 14:19:03;;;;;;;0.00;0.00;;;;;;;;;;4994873;28;20675;-76
2022/09/08 14:21:34;;;;;;;0.00;0.00;;;;;;;;;;4998778;28;20263;-75
2022/09/08 14:24:13;;;;;;;0.00;0.00;;;;;;;;;;4993377;28;20212;-75
2022/09/08 14:26:50;;;;;;;0.00;0.00;;;;;;;;;;5002334;28;20629;-76
2022/09/08 14:29:29;;;;;;;0.00;0.00;;;;;;;;;;5003924;28;20315;-76
2022/09/08 14:32:03;;;;;;;0.00;0.00;;;;;;;;;;4984854;28;20287;-76
2022/09/08 14:34:53;;;;;;;0.00;0.00;;;;;;;;;;4988980;28;20205;-76
2022/09/08 14:37:23;;;;;;;0.00;0.00;;;;;;;;;;4990402;28;20685;-75
2022/09/08 14:39:55;;;;;;;0.00;0.00;;;;;;;;;;4990911;28;20606;-75
2022/09/08 14:42:23;;;;;;;0.00;0.00;;;;;;;;;;4991945;28;20299;-75
2022/09/08 14:44:59;;;;;;;0.00;0.00;;;;;;;;;;4989459;28;20779;-76
2022/09/08 14:47:30;;;;;;;0.00;0.00;;;;;;;;;;4982841;28;20609;-76
2022/09/08 14:50:21;;;;;;;0.00;0.00;;;;;;;;;;4990985;28;20204;-77